createdAt,value
2019-05-23T00:01:33.894Z,46.77
2019-05-23T00:04:28.969Z,44.23
2019-05-23T00:07:23.174Z,48.60
2019-05-23T00:10:20.401Z,46.40
2019-05-23T00:13:03.541Z,48.60
2019-05-23T00:15:39.570Z,49.60
2019-05-23T00:18:12.010Z,48.60
2019-05-23T00:20:45.900Z,48.83
2019-05-23T00:23:19.869Z,44.40
2019-05-23T00:25:54.394Z,43.17
2019-05-23T00:28:27.913Z,44.27
2019-05-23T00:31:05.067Z,42.87
2019-05-23T00:33:38.258Z,37.17
2019-05-23T00:36:12.961Z,29.97
2019-05-23T00:38:47.321Z,29.13
2019-05-23T00:41:25.358Z,33.93
2019-05-23T00:43:57.818Z,29.43
2019-05-23T00:46:31.479Z,31.33
2019-05-23T00:49:06.131Z,33.10
2019-05-23T00:51:38.789Z,36.23
2019-05-23T00:54:11.187Z,32.40
2019-05-23T00:56:42.926Z,30.83
2019-05-23T00:59:26.742Z,31.60
2019-05-23T01:01:49.573Z,28.27
2019-05-23T01:04:22.826Z,28.17
2019-05-23T01:06:56.437Z,29.57
2019-05-23T01:09:29.536Z,27.20
2019-05-23T01:12:02.389Z,27.07
2019-05-23T01:14:34.313Z,27.67
2019-05-23T01:17:07.469Z,26.37
2019-05-23T01:19:40.815Z,25.73
2019-05-23T01:22:14.338Z,27.10
2019-05-23T01:24:48.519Z,25.40
2019-05-23T01:27:22.841Z,26.07
2019-05-23T01:29:55.085Z,27.33
2019-05-23T01:32:37.763Z,24.73
2019-05-23T01:35:12.978Z,29.73
2019-05-23T01:37:48.601Z,24.20
2019-05-23T01:40:20.956Z,25.40
2019-05-23T01:42:53.593Z,27.27
2019-05-23T01:45:27.885Z,30.13
2019-05-23T01:47:59.973Z,23.70
2019-05-23T01:50:31.696Z,23.90
2019-05-23T01:53:04.884Z,26.10
2019-05-23T01:55:36.475Z,25.13
2019-05-23T01:58:08.890Z,25.97
2019-05-23T02:00:42.101Z,26.03
2019-05-23T02:03:14.066Z,25.33
2019-05-23T02:05:46.435Z,27.50
2019-05-23T02:08:19.709Z,24.73
2019-05-23T02:10:51.176Z,20.87
2019-05-23T02:13:23.823Z,23.40
2019-05-23T02:15:59.142Z,22.00
2019-05-23T02:18:30.960Z,19.77
2019-05-23T02:21:02.682Z,21.43
2019-05-23T02:23:35.989Z,20.53
2019-05-23T02:26:08.906Z,17.73
2019-05-23T02:28:42.154Z,19.03
2019-05-23T02:31:14.327Z,18.07
2019-05-23T02:33:46.804Z,16.90
2019-05-23T02:36:21.110Z,14.73
2019-05-23T02:39:05.781Z,15.40
2019-05-23T02:41:43.507Z,15.63
2019-05-23T02:44:19.434Z,15.77
2019-05-23T02:47:13.997Z,16.47
2019-05-23T02:49:50.655Z,13.20
2019-05-23T02:52:30.853Z,15.77
2019-05-23T02:55:02.470Z,13.70
2019-05-23T02:57:35.287Z,19.73
2019-05-23T03:00:55.457Z,13.70
2019-05-23T03:03:33.012Z,11.87
2019-05-23T03:06:15.112Z,10.27
2019-05-23T03:08:48.784Z,9.97
2019-05-23T03:11:53.436Z,10.07
2019-05-23T03:14:26.689Z,10.37
2019-05-23T03:17:02.293Z,11.27
2019-05-23T03:19:48.079Z,10.03
2019-05-23T03:22:31.941Z,11.30
2019-05-23T03:25:05.994Z,15.40
2019-05-23T03:27:43.916Z,11.90
2019-05-23T03:30:22.728Z,14.37
2019-05-23T03:32:57.471Z,11.40
2019-05-23T03:35:42.960Z,13.20
2019-05-23T03:38:16.178Z,14.13
2019-05-23T03:40:49.331Z,13.17
2019-05-23T03:43:24.205Z,13.57
2019-05-23T03:45:59.559Z,12.07
2019-05-23T03:48:32.685Z,12.17
2019-05-23T03:51:05.561Z,8.83
2019-05-23T03:53:41.489Z,8.83
2019-05-23T03:56:15.920Z,9.70
2019-05-23T03:58:50.663Z,10.10
2019-05-23T04:01:24.950Z,8.98
2019-05-23T04:03:58.708Z,9.80
2019-05-23T04:06:31.602Z,8.15
2019-05-23T04:09:04.348Z,9.33
2019-05-23T04:11:37.459Z,9.10
2019-05-23T04:14:09.389Z,8.33
2019-05-23T04:16:41.420Z,12.00
2019-05-23T04:19:14.295Z,8.38
2019-05-23T04:21:45.933Z,8.98
2019-05-23T04:24:18.143Z,8.53
2019-05-23T04:26:50.060Z,8.65
2019-05-23T04:29:21.681Z,12.00
2019-05-23T04:32:07.189Z,8.48
2019-05-23T04:34:29.215Z,9.63
2019-05-23T04:37:02.464Z,8.38
2019-05-23T04:39:35.195Z,8.93
2019-05-23T04:42:09.225Z,7.70
2019-05-23T04:44:44.020Z,8.78
2019-05-23T04:47:13.474Z,8.60
2019-05-23T04:49:45.317Z,8.73
2019-05-23T04:52:17.793Z,7.75
2019-05-23T04:54:51.005Z,7.97
2019-05-23T04:57:24.455Z,8.13
2019-05-23T04:59:56.413Z,8.45
2019-05-23T05:02:28.853Z,7.90
2019-05-23T05:05:01.959Z,7.58
2019-05-23T05:07:33.447Z,7.62
2019-05-23T05:10:05.921Z,8.30
2019-05-23T05:12:37.421Z,7.28
2019-05-23T05:15:09.070Z,7.58
2019-05-23T05:17:42.532Z,6.90
2019-05-23T05:20:16.219Z,6.20
2019-05-23T05:22:48.795Z,7.28
2019-05-23T05:25:21.081Z,5.30
2019-05-23T05:27:52.548Z,6.60
2019-05-23T05:30:24.871Z,4.83
2019-05-23T05:32:57.430Z,7.85
2019-05-23T05:35:32.135Z,5.58
2019-05-23T05:38:03.518Z,4.87
2019-05-23T05:40:36.309Z,4.70
2019-05-23T05:43:08.942Z,4.83
2019-05-23T05:45:40.245Z,8.50
2019-05-23T05:48:12.477Z,4.78
2019-05-23T05:50:44.176Z,4.85
2019-05-23T05:53:16.598Z,6.53
2019-05-23T05:55:48.142Z,5.65
2019-05-23T05:58:19.497Z,7.67
2019-05-23T06:01:09.015Z,5.95
2019-05-23T06:03:41.648Z,5.28
2019-05-23T06:06:20.290Z,6.45
2019-05-23T06:08:56.802Z,5.87
2019-05-23T06:11:28.919Z,3.87
2019-05-23T06:14:00.503Z,5.47
2019-05-23T06:16:34.196Z,5.55
2019-05-23T06:19:06.262Z,4.47
2019-05-23T06:21:38.034Z,4.70
2019-05-23T06:24:12.067Z,4.67
2019-05-23T06:26:45.310Z,4.37
2019-05-23T06:29:19.266Z,5.55
2019-05-23T06:31:51.626Z,8.55
2019-05-23T06:34:27.668Z,4.83
2019-05-23T06:36:59.142Z,7.90
2019-05-23T06:39:31.904Z,5.53
2019-05-23T06:42:05.499Z,4.70
2019-05-23T06:44:37.816Z,5.85
2019-05-23T06:47:11.527Z,5.15
2019-05-23T06:49:44.531Z,6.33
2019-05-23T06:52:17.018Z,4.72
2019-05-23T06:54:49.922Z,7.25
2019-05-23T06:57:23.592Z,7.40
2019-05-23T06:59:58.809Z,7.37
2019-05-23T07:02:32.042Z,7.75
2019-05-23T07:05:06.096Z,7.28
2019-05-23T07:07:39.160Z,8.05
2019-05-23T07:10:11.426Z,9.30
2019-05-23T07:12:44.716Z,8.55
2019-05-23T07:15:16.691Z,8.83
2019-05-23T07:17:49.805Z,9.95
2019-05-23T07:20:23.249Z,10.00
2019-05-23T07:22:54.757Z,7.87
2019-05-23T07:25:27.043Z,11.78
2019-05-23T07:28:00.647Z,9.05
2019-05-23T07:30:32.029Z,10.85
2019-05-23T07:33:05.587Z,11.40
2019-05-23T07:35:37.078Z,11.28
2019-05-23T07:38:08.546Z,11.45
2019-05-23T07:40:40.733Z,10.72
2019-05-23T07:43:13.509Z,11.48
2019-05-23T07:45:50.155Z,13.62
2019-05-23T07:48:22.103Z,12.53
2019-05-23T07:50:55.130Z,14.47
2019-05-23T07:53:52.180Z,10.98
2019-05-23T07:56:25.911Z,13.20
2019-05-23T07:58:57.361Z,11.28
2019-05-23T08:01:31.402Z,11.85
2019-05-23T08:04:19.760Z,8.53
2019-05-23T08:06:38.793Z,8.78
2019-05-23T08:09:11.580Z,11.65
2019-05-23T08:11:42.895Z,9.35
2019-05-23T08:14:14.680Z,9.88
2019-05-23T08:16:46.732Z,10.70
2019-05-23T08:19:19.801Z,11.48
2019-05-23T08:21:52.685Z,10.25
2019-05-23T08:24:24.974Z,9.23
2019-05-23T08:26:57.489Z,10.78
2019-05-23T08:29:32.043Z,7.67
2019-05-23T08:32:04.638Z,8.85
2019-05-23T08:34:41.871Z,9.53
2019-05-23T08:37:12.535Z,7.42
2019-05-23T08:39:44.621Z,8.78
2019-05-23T08:42:18.955Z,9.10
2019-05-23T08:44:51.243Z,7.05
2019-05-23T08:47:25.541Z,9.23
2019-05-23T08:49:57.003Z,5.37
2019-05-23T08:52:28.435Z,9.43
2019-05-23T08:55:02.863Z,7.42
2019-05-23T08:57:37.306Z,6.47
2019-05-23T09:00:10.252Z,5.83
2019-05-23T09:02:45.098Z,6.28
2019-05-23T09:05:19.195Z,6.72
2019-05-23T09:07:54.151Z,8.85
2019-05-23T09:10:25.764Z,4.37
2019-05-23T09:12:59.643Z,4.55
2019-05-23T09:15:31.821Z,5.83
2019-05-23T09:18:04.035Z,6.42
2019-05-23T09:20:36.850Z,8.00
2019-05-23T09:23:09.983Z,7.00
2019-05-23T09:25:42.175Z,5.25
2019-05-23T09:28:15.569Z,7.80
2019-05-23T09:30:47.676Z,8.48
2019-05-23T09:33:21.952Z,7.15
2019-05-23T09:35:53.738Z,9.48
2019-05-23T09:38:27.151Z,8.00
2019-05-23T09:40:58.720Z,9.63
2019-05-23T09:43:30.064Z,8.80
2019-05-23T09:46:01.480Z,8.80
2019-05-23T09:48:32.909Z,10.60
2019-05-23T09:51:04.568Z,10.20
2019-05-23T09:53:36.748Z,8.13
2019-05-23T09:56:09.217Z,10.95
2019-05-23T09:58:40.620Z,12.35
2019-05-23T10:01:12.996Z,8.98
2019-05-23T10:03:46.863Z,11.20
2019-05-23T10:06:19.240Z,9.85
2019-05-23T10:08:52.077Z,12.53
2019-05-23T10:11:25.091Z,8.75
2019-05-23T10:13:56.697Z,10.18
2019-05-23T10:16:29.748Z,10.50
2019-05-23T10:19:03.024Z,13.00
2019-05-23T10:21:35.464Z,13.70
2019-05-23T10:24:09.391Z,10.25
2019-05-23T10:26:42.798Z,13.90
2019-05-23T10:29:14.162Z,11.08
2019-05-23T10:31:45.682Z,10.48
2019-05-23T10:34:17.055Z,9.25
2019-05-23T10:36:48.926Z,11.18
2019-05-23T10:39:21.317Z,12.45
2019-05-23T10:41:53.703Z,10.30
2019-05-23T10:44:25.085Z,10.18
2019-05-23T10:46:58.206Z,15.75
2019-05-23T10:49:30.815Z,8.90
2019-05-23T10:52:03.234Z,12.00
2019-05-23T10:54:35.511Z,6.55
2019-05-23T10:57:08.171Z,11.57
2019-05-23T10:59:39.656Z,7.60
2019-05-23T11:02:12.733Z,10.40
2019-05-23T11:04:44.269Z,12.13
2019-05-23T11:07:16.040Z,11.45
2019-05-23T11:09:49.815Z,9.00
2019-05-23T11:12:21.492Z,15.18
2019-05-23T11:14:54.222Z,12.58
2019-05-23T11:17:27.000Z,16.02
2019-05-23T11:19:58.668Z,8.48
2019-05-23T11:22:31.241Z,13.05
2019-05-23T11:25:03.091Z,8.98
2019-05-23T11:27:35.406Z,9.93
2019-05-23T11:30:13.505Z,7.53
2019-05-23T11:32:45.368Z,9.70
2019-05-23T11:35:16.790Z,8.05
2019-05-23T11:37:48.788Z,11.68
2019-05-23T11:40:20.306Z,9.60
2019-05-23T11:42:53.034Z,9.23
2019-05-23T11:45:26.612Z,7.60
2019-05-23T11:47:58.032Z,9.13
2019-05-23T11:50:30.668Z,8.65
2019-05-23T11:53:02.179Z,9.00
2019-05-23T11:55:34.376Z,10.45
2019-05-23T11:58:06.570Z,6.08
2019-05-23T12:01:09.981Z,7.75
2019-05-23T12:03:43.709Z,14.95
2019-05-23T12:06:15.418Z,8.40
2019-05-23T12:08:46.962Z,8.33
2019-05-23T12:11:18.571Z,11.00
2019-05-23T12:13:51.176Z,11.00
2019-05-23T12:16:26.037Z,7.22
2019-05-23T12:18:57.323Z,8.20
2019-05-23T12:21:29.487Z,8.18
2019-05-23T12:24:01.088Z,10.05
2019-05-23T12:26:32.562Z,12.47
2019-05-23T12:29:04.907Z,15.10
2019-05-23T12:31:37.278Z,11.15
2019-05-23T12:34:10.574Z,8.88
2019-05-23T12:36:42.171Z,11.60
2019-05-23T12:39:13.799Z,11.08
2019-05-23T12:41:46.005Z,13.45
2019-05-23T12:44:18.271Z,11.10
2019-05-23T12:46:50.385Z,12.65
2019-05-23T12:49:27.569Z,10.82
2019-05-23T12:52:00.463Z,8.83
2019-05-23T12:54:35.049Z,11.85
2019-05-23T12:57:07.057Z,9.03
2019-05-23T12:59:39.544Z,9.28
2019-05-23T13:02:14.872Z,8.60
2019-05-23T13:04:48.390Z,7.00
2019-05-23T13:07:35.626Z,10.32
2019-05-23T13:09:56.805Z,9.93
2019-05-23T13:12:29.273Z,10.53
2019-05-23T13:15:02.343Z,8.70
2019-05-23T13:17:34.778Z,10.78
2019-05-23T13:20:07.150Z,7.53
2019-05-23T13:22:38.604Z,6.87
2019-05-23T13:25:11.465Z,5.50
2019-05-23T13:27:44.643Z,8.33
2019-05-23T13:30:17.130Z,8.08
2019-05-23T13:32:48.691Z,6.53
2019-05-23T13:35:21.512Z,7.33
2019-05-23T13:37:54.479Z,7.30
2019-05-23T13:40:26.280Z,9.55
2019-05-23T13:42:59.142Z,10.35
2019-05-23T13:45:31.891Z,7.87
2019-05-23T13:48:05.064Z,12.05
2019-05-23T13:50:37.170Z,8.73
2019-05-23T13:53:11.773Z,8.58
2019-05-23T13:55:43.938Z,11.10
2019-05-23T13:58:15.430Z,13.05
2019-05-23T14:00:46.994Z,10.23
2019-05-23T14:03:18.981Z,11.73
2019-05-23T14:05:51.364Z,11.18
2019-05-23T14:08:24.569Z,11.30
2019-05-23T14:10:57.862Z,9.43
2019-05-23T14:13:31.998Z,10.48
2019-05-23T14:16:06.313Z,10.95
2019-05-23T14:18:38.902Z,9.40
2019-05-23T14:21:10.647Z,18.55
2019-05-23T14:23:42.257Z,10.53
2019-05-23T14:26:14.545Z,9.45
2019-05-23T14:28:47.640Z,12.40
2019-05-23T14:31:20.817Z,10.95
2019-05-23T14:34:02.311Z,9.85
2019-05-23T14:36:54.014Z,12.88
2019-05-23T14:39:33.201Z,9.43
2019-05-23T14:42:11.326Z,12.78
2019-05-23T14:44:43.442Z,12.88
2019-05-23T14:47:41.289Z,10.58
2019-05-23T14:50:32.850Z,11.20
2019-05-23T14:53:07.573Z,10.43
2019-05-23T14:55:39.132Z,9.65
2019-05-23T14:58:11.226Z,10.63
2019-05-23T15:00:45.477Z,11.00
2019-05-23T15:03:18.563Z,10.70
2019-05-23T15:05:52.342Z,9.48
2019-05-23T15:08:25.196Z,10.78
2019-05-23T15:10:57.832Z,10.28
2019-05-23T15:13:30.270Z,8.78
2019-05-23T15:16:01.582Z,7.65
2019-05-23T15:18:33.446Z,11.45
2019-05-23T15:21:05.305Z,10.55
2019-05-23T15:23:37.299Z,10.58
2019-05-23T15:26:22.386Z,8.78
2019-05-23T15:28:42.999Z,8.85
2019-05-23T15:31:15.578Z,10.38
2019-05-23T15:33:48.397Z,7.22
2019-05-23T15:36:19.987Z,11.33
2019-05-23T15:39:08.260Z,7.35
2019-05-23T15:41:27.189Z,8.25
2019-05-23T15:43:58.664Z,9.60
2019-05-23T15:46:30.245Z,7.20
2019-05-23T15:49:02.601Z,7.17
2019-05-23T15:51:41.757Z,7.17
2019-05-23T15:54:23.787Z,16.57
2019-05-23T15:57:13.166Z,8.50
2019-05-23T15:59:50.009Z,7.22
2019-05-23T16:02:23.663Z,7.92
2019-05-23T16:04:58.367Z,9.18
2019-05-23T16:07:30.697Z,9.43
2019-05-23T16:10:03.433Z,9.38
2019-05-23T16:12:36.725Z,9.00
2019-05-23T16:15:11.825Z,9.50
2019-05-23T16:17:43.260Z,5.80
2019-05-23T16:20:14.995Z,11.35
2019-05-23T16:22:46.882Z,9.08
2019-05-23T16:25:19.257Z,9.80
2019-05-23T16:27:52.779Z,8.63
2019-05-23T16:30:24.552Z,9.98
2019-05-23T16:32:56.468Z,7.30
2019-05-23T16:35:28.270Z,5.83
2019-05-23T16:38:01.461Z,5.35
2019-05-23T16:40:35.416Z,7.10
2019-05-23T16:43:08.511Z,4.05
2019-05-23T16:45:42.418Z,8.85
2019-05-23T16:48:13.933Z,8.45
2019-05-23T16:50:46.339Z,5.17
2019-05-23T16:53:18.276Z,8.25
2019-05-23T16:56:01.975Z,5.40
2019-05-23T16:59:11.979Z,6.10
2019-05-23T17:02:07.130Z,3.30
2019-05-23T17:05:09.994Z,4.60
2019-05-23T17:07:57.200Z,4.17
2019-05-23T17:10:52.079Z,4.53
2019-05-23T17:13:29.352Z,4.75
2019-05-23T17:16:19.505Z,7.15
2019-05-23T17:19:03.198Z,9.60
2019-05-23T17:22:02.550Z,5.00
2019-05-23T17:24:59.194Z,5.45
2019-05-23T17:27:43.279Z,7.33
2019-05-23T17:30:30.515Z,7.40
2019-05-23T17:33:03.738Z,6.45
2019-05-23T17:35:36.117Z,5.80
2019-05-23T17:38:09.313Z,6.22
2019-05-23T17:40:40.762Z,5.75
2019-05-23T17:43:12.604Z,5.00
2019-05-23T17:45:44.483Z,4.97
2019-05-23T17:48:18.262Z,3.85
2019-05-23T17:50:50.597Z,5.58
2019-05-23T17:53:22.211Z,8.25
2019-05-23T17:55:55.850Z,5.85
2019-05-23T17:58:29.103Z,4.28
2019-05-23T18:01:05.280Z,5.62
2019-05-23T18:03:38.275Z,5.53
2019-05-23T18:06:12.611Z,3.40
2019-05-23T18:08:44.590Z,5.17
2019-05-23T18:11:16.501Z,5.20
2019-05-23T18:13:49.433Z,6.58
2019-05-23T18:16:22.261Z,2.92
2019-05-23T18:18:53.828Z,5.10
2019-05-23T18:21:28.159Z,8.78
2019-05-23T18:24:01.293Z,5.78
2019-05-23T18:26:33.685Z,5.70
2019-05-23T18:29:05.335Z,5.47
2019-05-23T18:31:38.181Z,4.37
2019-05-23T18:34:11.439Z,4.28
2019-05-23T18:36:44.192Z,5.65
2019-05-23T18:39:17.132Z,9.78
2019-05-23T18:41:50.917Z,8.83
2019-05-23T18:44:23.264Z,10.60
2019-05-23T18:47:24.178Z,8.03
2019-05-23T18:49:56.798Z,10.60
2019-05-23T18:52:29.086Z,8.60
2019-05-23T18:55:18.369Z,12.28
2019-05-23T18:57:51.244Z,6.53
2019-05-23T19:00:43.373Z,4.93
2019-05-23T19:03:15.022Z,7.43
2019-05-23T19:06:05.853Z,7.47
2019-05-23T19:08:37.772Z,8.10
2019-05-23T19:11:20.139Z,7.28
2019-05-23T19:13:42.985Z,9.13
2019-05-23T19:16:33.628Z,8.10
2019-05-23T19:19:06.882Z,9.38
2019-05-23T19:21:39.657Z,9.10
2019-05-23T19:24:11.169Z,6.30
2019-05-23T19:27:01.668Z,9.38
2019-05-23T19:29:33.386Z,6.85
2019-05-23T19:32:06.366Z,6.27
2019-05-23T19:34:38.653Z,6.73
2019-05-23T19:37:28.597Z,7.87
2019-05-23T19:40:02.699Z,6.87
2019-05-23T19:42:35.753Z,6.80
2019-05-23T19:45:24.806Z,7.80
2019-05-23T19:47:56.140Z,8.50
2019-05-23T19:50:30.268Z,8.53
2019-05-23T19:53:02.288Z,6.83
2019-05-23T19:55:54.348Z,6.87
2019-05-23T19:58:26.115Z,8.90
2019-05-23T20:01:00.908Z,5.63
2019-05-23T20:03:50.970Z,7.45
2019-05-23T20:06:42.541Z,6.10
2019-05-23T20:09:32.297Z,6.37
2019-05-23T20:12:04.521Z,6.53
2019-05-23T20:14:36.011Z,7.43
2019-05-23T20:17:09.087Z,6.07
2019-05-23T20:19:59.532Z,7.47
2019-05-23T20:23:08.175Z,4.10
2019-05-23T20:25:40.643Z,8.37
2019-05-23T20:28:31.077Z,5.30
2019-05-23T20:31:20.953Z,5.73
2019-05-23T20:33:53.854Z,7.37
2019-05-23T20:36:25.405Z,6.50
2019-05-23T20:39:17.544Z,6.63
2019-05-23T20:41:50.254Z,10.23
2019-05-23T20:44:21.513Z,8.93
2019-05-23T20:47:11.190Z,10.33
2019-05-23T20:49:43.295Z,8.27
2019-05-23T20:52:33.309Z,5.50
2019-05-23T20:55:05.564Z,10.10
2019-05-23T20:58:13.105Z,12.07
2019-05-23T21:01:11.376Z,10.47
2019-05-23T21:03:43.920Z,26.53
2019-05-23T21:06:16.697Z,6.97
2019-05-23T21:08:50.509Z,10.63
2019-05-23T21:11:58.302Z,9.03
2019-05-23T21:14:33.347Z,5.13
2019-05-23T21:17:05.183Z,10.70
2019-05-23T21:19:36.580Z,8.70
2019-05-23T21:22:09.847Z,6.90
2019-05-23T21:24:41.609Z,6.67
2019-05-23T21:27:32.329Z,8.07
2019-05-23T21:30:21.899Z,7.40
2019-05-23T21:32:54.165Z,7.33
2019-05-23T21:35:43.509Z,6.97
2019-05-23T21:38:15.106Z,6.27
2019-05-23T21:40:47.777Z,10.63
2019-05-23T21:43:19.051Z,8.67
2019-05-23T21:45:50.819Z,8.00
2019-05-23T21:48:23.265Z,8.07
2019-05-23T21:50:56.068Z,7.50
2019-05-23T21:53:28.649Z,7.27
2019-05-23T21:56:00.194Z,6.80
2019-05-23T21:58:32.742Z,8.07
2019-05-23T22:01:26.088Z,7.70
2019-05-23T22:04:12.373Z,15.10
2019-05-23T22:06:49.474Z,8.63
2019-05-23T22:09:21.880Z,10.07
2019-05-23T22:11:56.691Z,11.70
2019-05-23T22:14:28.308Z,11.27
2019-05-23T22:17:00.492Z,9.03
2019-05-23T22:19:32.675Z,5.30
2019-05-23T22:22:04.233Z,7.93
2019-05-23T22:24:53.557Z,10.07
2019-05-23T22:27:45.621Z,9.17
2019-05-23T22:30:35.018Z,10.30
2019-05-23T22:33:08.189Z,10.87
2019-05-23T22:36:16.060Z,11.47
2019-05-23T22:38:48.775Z,6.90
2019-05-23T22:41:20.783Z,9.90
2019-05-23T22:43:52.369Z,10.47
2019-05-23T22:46:42.431Z,10.23
2019-05-23T22:49:14.747Z,7.67
2019-05-23T22:51:46.467Z,8.53
2019-05-23T22:54:18.086Z,10.00
2019-05-23T22:57:07.455Z,10.33
2019-05-23T22:59:39.075Z,6.90
2019-05-23T23:02:13.630Z,7.73
2019-05-23T23:04:45.043Z,9.60
2019-05-23T23:07:17.968Z,9.27
2019-05-23T23:09:50.364Z,8.10
2019-05-23T23:12:22.526Z,11.87
2019-05-23T23:14:54.810Z,8.70
2019-05-23T23:17:43.737Z,8.67
2019-05-23T23:20:33.136Z,9.60
2019-05-23T23:23:06.596Z,11.00
2019-05-23T23:25:37.959Z,9.47
2019-05-23T23:28:09.834Z,12.50
2019-05-23T23:30:44.680Z,8.97
2019-05-23T23:33:16.074Z,9.00
2019-05-23T23:36:05.838Z,15.87
2019-05-23T23:38:37.971Z,9.20
2019-05-23T23:41:09.702Z,10.33
2019-05-23T23:43:58.111Z,12.57
2019-05-23T23:46:33.234Z,14.50
2019-05-23T23:49:22.692Z,9.07
2019-05-23T23:52:13.985Z,12.00
2019-05-23T23:55:05.569Z,11.53
2019-05-23T23:57:55.493Z,11.27
